Wyndmere, North Dakota
Current Conditions -  °F | °C
As of 4:55 PM on Monday 22 Dec 2014 (Local Time) from KGWR Reporting Station
Overcast Overcast  
Wind Chill: 29°   Ceiling: 300
Heat Index: 37°   Visibility: 8mi
Dew Point: 37°   Wind: 14mph
Humidity: 100%   Direction: 90°E
Pressure: 29.51"   Gusts: NA
Location:  46.27°N, 97.13°W
Report Text: KGWR 222255Z AUTO 09012KT 8SM OVC003 03/03 A2951 RMK A01 P000
Loading
Personal Weather Stations






























Interactive Weather Map New forecast layout! Learn more

10-Day Weather Forecast

Advertisements
Track Severe Weather on mobile